Terminal Aerodrome Forecast
Issued by NWS Wakefield, VA

Home | Current Version | Previous Version | Text Only | Print | Product List | Glossary On
Versions: 1 2 3 4 5 6 7 8 9 10 11 12 13 14 15 16 17 18 19
000
FTUS41 KAKQ 241700
TAFSBY
TAF
KSBY 241739Z 2418/2518 35007KT P6SM BKN030 BKN070 OVC100
      TEMPO 2418/2420 BKN009
     FM250300 36003KT P6SM BKN040 BKN100
     FM250900 02005KT P6SM BKN035
     FM251400 01008KT P6SM BKN040
      AMD NOT SKED=

USA.gov is the U.S. government's official web portal to all federal, state and local government web resources and services.